Главная страница
METAR-TAF:

METAR-TAF

Аэропорты :

Махшехр, Иран

широта: 30-33-23N, долгота: 049-09-07E, высота над уровнем моря: 2 м

Текущие метеонаблюдения

Эта сводка был подготовлена 30 минут назад, в 00:00 UTC
Штиль
Температура 22°C
Влажность 53%
Давление 1010 hPa
Видимость 10 км и более
Нет облачности ниже 1500 м, и нет кучево-дождевой облачности

METAR: OIAM 190000Z 00000KT CAVOK 22/12 Q1010

Время: 05:00 (00:30 UTC)


TAF: отсутствует

Метеонаблюдения и прогнозы для более 4000 аэропортов (сводки METAR и TAF).

Имеющиеся станции представлены на карте желтыми и красными точками.

Чтобы увидеть название станции, наведите на нее мышь.

Затем щелкните, чтобы увидеть метеонаблюдения и метеопрогнозы.

Управление картой: чтобы увеличить масштаб, щелкните зеленые кнопки с черным крестиком; чтобы уменьшить масштаб, щелкните зеленую кнопку с тире; для просмотра соседних карт щелкайте зеленые стрелки.


METAR-TAF: